RED BEACH NEARSHORE, CA - 264

GPS Positions

GPS Time
Latitude
Degrees
Longitude
Degrees
Gap
 
Distance
NM
Speed
Knots
Direction
Degrees
Apr 18, 03:11 33.28967° -117.50011° 2 min 0.02 0.05
40°
Apr 18, 03:09 33.28965° -117.50014° 7 min 0.02 0.01
220°
Apr 18, 03:01 33.28967° -117.50011° 2 min 0.02 0.03
90°
Apr 18, 02:59 33.28967° -117.50014° 7 min 0.02 0.01
270°
Apr 18, 02:51 33.28967° -117.50011° 2 min 0.02 0.03
90°
Apr 18, 02:49 33.28967° -117.50014° 7 min 0.02 0.01
270°
Apr 18, 02:41 33.28967° -117.50010° 2 min 0.02 0.02
180°
Apr 18, 02:39 33.28968° -117.50010° 7 min 0.02 0.01
48°
Apr 18, 02:31 33.28967° -117.50011° 2 min 0.02 0.00
Apr 18, 02:29 33.28967° -117.50011° 7 min 0.02 0.00
Apr 18, 02:21 33.28967° -117.50011° 2 min 0.02 0.02
270°
Apr 18, 02:19 33.28967° -117.50010° 7 min 0.02 0.01
132°
Apr 18, 02:11 33.28968° -117.50011° 2 min 0.02 0.00
Apr 18, 02:09 33.28968° -117.50011° 7 min 0.02 0.01
59°
Apr 18, 02:01 33.28967° -117.50014° 2 min 0.02 0.02
180°
Apr 18, 01:59 33.28968° -117.50014° 7 min 0.02 0.01
270°
Apr 18, 01:51 33.28968° -117.50010° 2 min 0.02 0.03
270°
Apr 18, 01:49 33.28968° -117.50008° 7 min 0.02 0.02
70°
Apr 18, 01:41 33.28967° -117.50011° 2 min 0.02 0.00
Apr 18, 01:39 33.28967° -117.50011° 8 min 0.02 0.00
Apr 18, 01:31 33.28967° -117.50011° 2 min 0.02 0.03
228°
Apr 18, 01:29 33.28968° -117.50010° 7 min 0.02 0.01
90°
Apr 18, 01:21 33.28968° -117.50011° 2 min 0.02 0.00
Apr 18, 01:19 33.28968° -117.50011° 8 min 0.02 0.02
270°
Apr 18, 01:11 33.28968° -117.50005° 2 min 0.02 0.00
Apr 18, 01:09 33.28968° -117.50005° 8 min 0.02 0.00
Apr 18, 01:01 33.28968° -117.50005° 2 min 0.02 0.04
301°
Apr 18, 00:59 33.28967° -117.50003° 8 min 0.02 0.06
243°
Apr 18, 00:51 33.28974° -117.49988° 2 min 0.02 0.02
180°
Apr 18, 00:49 33.28975° -117.49988° 8 min 0.02 0.01
270°
Apr 18, 00:41 33.28975° -117.49986° 2 min 0.02 0.03
180°
Apr 18, 00:39 33.28977° -117.49986° 8 min 0.02 0.00
Apr 18, 00:31 33.28977° -117.49986° 2 min 0.02 0.08
239°
Apr 18, 00:29 33.28979° -117.49982° 7 min 0.02 0.01
320°
Apr 18, 00:21 33.28977° -117.49979° 2 min 0.02 0.05
140°
Apr 18, 00:19 33.28979° -117.49982° 8 min 0.02 0.00
Apr 18, 00:11 33.28979° -117.49982° 2 min 0.02 0.00
Apr 18, 00:09 33.28979° -117.49982° 8 min 0.02 0.01
Apr 18, 00:01 33.28977° -117.49982° 2 min 0.02 0.09
228°
Apr 17, 23:59 33.28980° -117.49977° 7 min 0.02 0.00
Apr 17, 23:51 33.28980° -117.49977° 2 min 0.02 0.00
Apr 17, 23:49 33.28980° -117.49977° 7 min 0.02 0.01
59°
Apr 17, 23:41 33.28979° -117.49979° 2 min 0.02 0.05
320°
Apr 17, 23:39 33.28977° -117.49977° 7 min 0.02 0.01
180°
Apr 17, 23:31 33.28979° -117.49977° 2 min 0.02 0.05
180°
Apr 17, 23:29 33.28982° -117.49977° 8 min 0.02 0.01
270°
Apr 17, 23:21 33.28982° -117.49976° 2 min 0.02 0.03
Apr 17, 23:19 33.28980° -117.49976° 8 min 0.02 0.01
90°
Apr 17, 23:11 33.28980° -117.49977° 2 min 0.02 0.00
Apr 17, 23:09 33.28980° -117.49977° 8 min 0.02 0.02
226°
Apr 17, 23:01 33.28983° -117.49973° 2 min 0.02 0.04
180°
Apr 17, 22:59 33.28986° -117.49973° 7 min 0.02 0.01
180°
Apr 17, 22:51 33.28987° -117.49973° 2 min 0.02 0.03
270°
Apr 17, 22:49 33.28987° -117.49971° 7 min 0.02 0.02
73°
Apr 17, 22:41 33.28986° -117.49976° 2 min 0.02 0.04
Apr 17, 22:39 33.28983° -117.49976° 7 min 0.02 0.00
Apr 17, 22:31 33.28983° -117.49976° 2 min 0.02 0.07
209°
Apr 17, 22:29 33.28987° -117.49973° 7 min 0.02 0.00
Apr 17, 22:21 33.28987° -117.49973° 2 min 0.02 0.00
Apr 17, 22:19 33.28987° -117.49973° 7 min 0.02 0.02
Apr 17, 22:11 33.28983° -117.49973° 2 min 0.02 0.00
Apr 17, 22:09 33.28983° -117.49973° 7 min 0.02 0.01
90°
Apr 17, 22:01 33.28983° -117.49976° 2 min 0.02 0.00
Apr 17, 21:59 33.28983° -117.49976° 8 min 0.02 0.01
270°
Apr 17, 21:51 33.28983° -117.49973° 2 min 0.02 0.04
180°
Apr 17, 21:49 33.28986° -117.49973° 8 min 0.02 0.01
Apr 17, 21:41 33.28983° -117.49973° 2 min 0.02 0.02
Apr 17, 21:39 33.28982° -117.49973° 7 min 0.02 0.01
180°
Apr 17, 21:31 33.28983° -117.49973° 2 min 0.02 0.04
180°
Apr 17, 21:29 33.28986° -117.49973° 7 min 0.02 0.01
270°
Apr 17, 21:21 33.28986° -117.49971° 2 min 0.02 0.04
Apr 17, 21:19 33.28983° -117.49971° 7 min 0.02 0.01
180°
Apr 17, 21:11 33.28986° -117.49971° 2 min 0.02 0.02
180°
Apr 17, 21:09 33.28987° -117.49971° 7 min 0.02 0.01
Apr 17, 21:01 33.28986° -117.49971° 2 min 0.02 0.02
180°
Apr 17, 20:59 33.28987° -117.49971° 7 min 0.02 0.01
270°
Apr 17, 20:51 33.28987° -117.49969° 2 min 0.02 0.03
90°
Apr 17, 20:49 33.28987° -117.49971° 7 min 0.02 0.01
Apr 17, 20:41 33.28986° -117.49971° 2 min 0.02 0.00
Apr 17, 20:39 33.28986° -117.49971° 7 min 0.02 0.01
180°
Apr 17, 20:31 33.28987° -117.49971° 2 min 0.02 0.00
Apr 17, 20:29 33.28987° -117.49971° 7 min 0.02 0.01
Apr 17, 20:21 33.28986° -117.49971° 2 min 0.02 0.03
90°
Apr 17, 20:19 33.28986° -117.49973° 7 min 0.02 0.01
270°
Apr 17, 20:11 33.28986° -117.49971° 2 min 0.02 0.04
121°
Apr 17, 20:09 33.28987° -117.49973° 7 min 0.02 0.01
301°
Apr 17, 20:01 33.28986° -117.49971° 2 min 0.02 0.03
90°
Apr 17, 19:59 33.28986° -117.49973° 8 min 0.02 0.01
180°
Apr 17, 19:51 33.28987° -117.49973° 2 min 0.02 0.00
Apr 17, 19:49 33.28987° -117.49973° 8 min 0.02 0.01
Apr 17, 19:41 33.28986° -117.49973° 2 min 0.02 0.03
90°
Apr 17, 19:39 33.28986° -117.49976° 7 min 0.02 0.01
270°
Apr 17, 19:31 33.28986° -117.49973° 2 min 0.02 0.00
Apr 17, 19:29 33.28986° -117.49973° 7 min 0.02 0.01
180°
Apr 17, 19:21 33.28987° -117.49973° 2 min 0.02 0.03
90°
Apr 17, 19:19 33.28987° -117.49976° 7 min 0.02 0.01
Apr 17, 19:11 33.28986° -117.49976° 2 min 0.02 0.00
Apr 17, 19:09 33.28986° -117.49976° 8 min 0.02 0.01
270°
Apr 17, 19:01 33.28986° -117.49973° 2 min 0.02 0.04
Apr 17, 18:59 33.28983° -117.49973° 8 min 0.02 0.01
220°
Apr 17, 18:51 33.28986° -117.49971° 2 min 0.02 0.03
90°
Apr 17, 18:49 33.28986° -117.49973° 7 min 0.02 0.02
43°
Apr 17, 18:41 33.28982° -117.49977° 2 min 0.02 0.00
Apr 17, 18:39 33.28982° -117.49977° 8 min 0.02 0.01
228°
Apr 17, 18:31 33.28983° -117.49976° 2 min 0.02 0.03
270°
Apr 17, 18:29 33.28983° -117.49973° 8 min 0.02 0.01
59°
Apr 17, 18:21 33.28982° -117.49976° 2 min 0.02 0.00
Apr 17, 18:19 33.28982° -117.49976° 8 min 0.02 0.01
239°
Apr 17, 18:11 33.28983° -117.49973° 2 min 0.02 0.06
32°
Apr 17, 18:09 33.28980° -117.49976° 7 min 0.02 0.00
Apr 17, 18:01 33.28980° -117.49976° 2 min 0.02 0.00
Apr 17, 17:59 33.28980° -117.49976° 7 min 0.02 0.01
90°
Apr 17, 17:51 33.28980° -117.49977° 2 min 0.02 0.03
180°
Apr 17, 17:49 33.28982° -117.49977° 7 min 0.02 0.01
270°
Apr 17, 17:41 33.28982° -117.49976° 2 min 0.02 0.00
Apr 17, 17:39 33.28982° -117.49976° 7 min 0.02 0.01
23°
Apr 17, 17:31 33.28979° -117.49977° 2 min 0.02 0.03
90°
Apr 17, 17:29 33.28979° -117.49979° 7 min 0.02 0.01
270°
Apr 17, 17:21 33.28979° -117.49977° 2 min 0.02 0.02
180°
Apr 17, 17:19 33.28980° -117.49977° 7 min 0.02 0.01
Apr 17, 17:11 33.28979° -117.49977° 2 min 0.02 0.06
203°
Apr 17, 17:09 33.28982° -117.49976° 7 min 0.02 0.01
23°
Apr 17, 17:01 33.28979° -117.49977° 2 min 0.02 0.00
Apr 17, 16:59 33.28979° -117.49977° 7 min 0.02 0.02
59°
Apr 17, 16:51 33.28977° -117.49982° 2 min 0.02 0.03
Apr 17, 16:49 33.28975° -117.49982° 7 min 0.02 0.00
Apr 17, 16:41 33.28975° -117.49982° 2 min 0.02 0.00
Apr 17, 16:39 33.28975° -117.49982° 7 min 0.02 0.02
205°
Apr 17, 16:31 33.28979° -117.49979° 2 min 0.02 0.03
90°
Apr 17, 16:29 33.28979° -117.49982° 7 min 0.02 0.03
36°
Apr 17, 16:21 33.28974° -117.49986° 2 min 0.02 0.02
180°
Apr 17, 16:19 33.28975° -117.49986° 7 min 0.02 0.03
48°
Apr 17, 16:11 33.28970° -117.49992° 2 min 0.02 0.03
Apr 17, 16:09 33.28968° -117.49992° 7 min 0.02 0.04
218°
Apr 17, 16:01 33.28975° -117.49986° 2 min 0.02 0.00
Apr 17, 15:59 33.28975° -117.49986° 7 min 0.02 0.01
90°
Apr 17, 15:51 33.28975° -117.49988° 2 min 0.02 0.02
270°
Apr 17, 15:49 33.28975° -117.49986° 8 min 0.02 0.01
90°
Apr 17, 15:41 33.28975° -117.49988° 2 min 0.02 0.02
270°
Apr 17, 15:39 33.28975° -117.49986° 7 min 0.02 0.02
77°
Apr 17, 15:31 33.28974° -117.49992° 2 min 0.02 0.05
320°
Apr 17, 15:29 33.28971° -117.49990° 8 min 0.02 0.03
211°
Apr 17, 15:21 33.28977° -117.49986° 2 min 0.02 0.04
180°
Apr 17, 15:19 33.28979° -117.49986° 8 min 0.02 0.01
Apr 17, 15:11 33.28977° -117.49986° 2 min 0.02 0.04
180°
Apr 17, 15:09 33.28979° -117.49986° 7 min 0.02 0.01
29°
Apr 17, 15:01 33.28977° -117.49988° 2 min 0.02 0.02
270°
Apr 17, 14:59 33.28977° -117.49986° 7 min 0.02 0.05
59°
Apr 17, 14:51 33.28971° -117.49997° 2 min 0.02 0.00
Apr 17, 14:49 33.28971° -117.49997° 7 min 0.02 0.02
270°
Apr 17, 14:41 33.28971° -117.49992° 2 min 0.02 0.07
209°
Apr 17, 14:39 33.28975° -117.49990° 7 min 0.02 0.01
225°
Apr 17, 14:31 33.28977° -117.49988° 2 min 0.02 0.05
45°
Apr 17, 14:29 33.28975° -117.49990° 8 min 0.02 0.02
73°
Apr 17, 14:21 33.28974° -117.49995° 2 min 0.02 0.08
59°
Apr 17, 14:19 33.28971° -117.49999° 8 min 0.02 0.01
48°
Apr 17, 14:11 33.28970° -117.50001° 2 min 0.02 0.02
270°
Apr 17, 14:09 33.28970° -117.49999° 7 min 0.02 0.01
239°
Apr 17, 14:01 33.28971° -117.49997° 2 min 0.02 0.00
Apr 17, 13:59 33.28971° -117.49997° 7 min 0.02 0.01
220°
Apr 17, 13:51 33.28974° -117.49995° 2 min 0.02 0.06
212°
Apr 17, 13:49 33.28977° -117.49992° 7 min 0.02 0.03
196°
Apr 17, 13:41 33.28983° -117.49990° 2 min 0.01 0.03
270°
Apr 17, 13:39 33.28983° -117.49988° 7 min 0.01 0.03
42°
Apr 17, 13:31 33.28979° -117.49992° 2 min 0.01 0.00
Apr 17, 13:29 33.28979° -117.49992° 7 min 0.01 0.01
Apr 17, 13:21 33.28977° -117.49992° 2 min 0.02 0.04
180°
Apr 17, 13:19 33.28979° -117.49992° 7 min 0.01 0.01
239°
Apr 17, 13:11 33.28980° -117.49990° 2 min 0.01 0.06
270°
Apr 17, 13:09 33.28980° -117.49986° 7 min 0.02 0.04
69°
Apr 17, 13:01 33.28977° -117.49997° 2 min 0.01 0.05
Apr 17, 12:59 33.28974° -117.49997° 7 min 0.02 0.02
212°
Apr 17, 12:51 33.28977° -117.49995° 2 min 0.01 0.05
220°
Apr 17, 12:49 33.28979° -117.49992° 7 min 0.01 0.01
40°
Apr 17, 12:41 33.28977° -117.49995° 2 min 0.01 0.05
220°
Apr 17, 12:39 33.28979° -117.49992° 8 min 0.01 0.02
25°
Apr 17, 12:31 33.28975° -117.49995° 1 min 0.02 0.07
73°
Apr 17, 12:29 33.28974° -117.49999° 8 min 0.01 0.01
90°
Apr 17, 12:21 33.28974° -117.50001° 2 min 0.01 0.03
90°
Apr 17, 12:19 33.28974° -117.50003° 8 min 0.01 0.02
107°
Apr 17, 12:11 33.28975° -117.50008° 2 min 0.01 0.04
301°
Apr 17, 12:09 33.28974° -117.50005° 7 min 0.01 0.01
121°
Apr 17, 12:01 33.28975° -117.50008° 2 min 0.01 0.02
Apr 17, 11:59 33.28974° -117.50008° 8 min 0.01 0.01
121°
Apr 17, 11:51 33.28975° -117.50010° 2 min 0.01 0.00
Apr 17, 11:49 33.28975° -117.50010° 7 min 0.01 0.01
48°
Apr 17, 11:41 33.28974° -117.50011° 2 min 0.01 0.05
331°
Apr 17, 11:39 33.28971° -117.50010° 8 min 0.01 0.02
90°
Apr 17, 11:31 33.28971° -117.50016° 2 min 0.01 0.00
Apr 17, 11:29 33.28971° -117.50016° 8 min 0.01 0.03
124°
Apr 17, 11:21 33.28975° -117.50022° 2 min 0.01 0.00
Apr 17, 11:19 33.28975° -117.50022° 8 min 0.01 0.01
312°
Apr 17, 11:11 33.28974° -117.50021° 2 min 0.01 0.03
132°
Apr 17, 11:09 33.28975° -117.50022° 8 min 0.01 0.04
104°
Apr 17, 11:01 33.28977° -117.50031° 2 min 0.01 0.04
180°
Apr 17, 10:59 33.28979° -117.50031° 8 min 0.01 0.01
270°
Apr 17, 10:51 33.28979° -117.50029° 2 min 0.01 0.04
Apr 17, 10:49 33.28977° -117.50029° 7 min 0.01 0.01
90°
Apr 17, 10:41 33.28977° -117.50031° 2 min 0.01 0.04
180°
Apr 17, 10:39 33.28979° -117.50031° 8 min 0.01 0.01
90°
Apr 17, 10:31 33.28979° -117.50035° 2 min 0.01 0.00
Apr 17, 10:29 33.28979° -117.50035° 7 min 0.01 0.01
270°
Apr 17, 10:21 33.28979° -117.50033° 2 min 0.01 0.02
270°
Apr 17, 10:19 33.28979° -117.50031° 7 min 0.01 0.01
Apr 17, 10:11 33.28977° -117.50031° 2 min 0.01 0.00
Apr 17, 10:09 33.28977° -117.50031° 7 min 0.01 0.02
328°
Apr 17, 10:01 33.28974° -117.50029° 2 min 0.02 0.00
Apr 17, 09:59 33.28974° -117.50029° 7 min 0.02 0.01
239°
Apr 17, 09:51 33.28975° -117.50027° 2 min 0.01 0.03
90°
Apr 17, 09:49 33.28975° -117.50029° 8 min 0.01 0.03
270°
Apr 17, 09:41 33.28975° -117.50022° 2 min 0.01 0.06
Apr 17, 09:39 33.28971° -117.50022° 7 min 0.01 0.02
180°
Apr 17, 09:31 33.28975° -117.50022° 2 min 0.01 0.00
Apr 17, 09:29 33.28975° -117.50022° 7 min 0.01 0.03
90°
Apr 17, 09:21 33.28975° -117.50029° 1 min 0.01 0.04
301°
Apr 17, 09:19 33.28974° -117.50027° 8 min 0.01 0.01
270°
Apr 17, 09:11 33.28974° -117.50024° 2 min 0.01 0.00
Apr 17, 09:09 33.28974° -117.50024° 8 min 0.01 0.01
270°
Apr 17, 09:01 33.28974° -117.50022° 2 min 0.01 0.03
90°
Apr 17, 08:59 33.28974° -117.50024° 8 min 0.01 0.01
320°
Apr 17, 08:51 33.28971° -117.50022° 2 min 0.01 0.00
Apr 17, 08:49 33.28971° -117.50022° 8 min 0.01 0.03
112°
Apr 17, 08:41 33.28974° -117.50029° 2 min 0.02 0.04
Apr 17, 08:39 33.28971° -117.50029° 8 min 0.02 0.01
140°
Apr 17, 08:31 33.28974° -117.50031° 2 min 0.02 0.07
270°
Apr 17, 08:29 33.28974° -117.50027° 7 min 0.01 0.02
331°
Apr 17, 08:21 33.28970° -117.50024° 2 min 0.02 0.00
Apr 17, 08:19 33.28970° -117.50024° 7 min 0.02 0.00
Apr 17, 08:11 33.28970° -117.50024° 2 min 0.02 0.03
90°
Apr 17, 08:09 33.28970° -117.50027° 8 min 0.02 0.00
Apr 17, 08:01 33.28970° -117.50027° 2 min 0.02 0.03
Apr 17, 07:59 33.28968° -117.50027° 8 min 0.02 0.01
180°
Apr 17, 07:51 33.28970° -117.50027° 2 min 0.02 0.03
90°
Apr 17, 07:49 33.28970° -117.50029° 8 min 0.02 0.01
270°
Apr 17, 07:41 33.28970° -117.50027° 2 min 0.02 0.03
270°
Apr 17, 07:39 33.28970° -117.50024° 8 min 0.02 0.01
90°
Apr 17, 07:31 33.28970° -117.50027° 2 min 0.02 0.03
90°
Apr 17, 07:29 33.28970° -117.50029° 8 min 0.02 0.01
270°
Apr 17, 07:21 33.28970° -117.50027° 2 min 0.02 0.05
315°
Apr 17, 07:19 33.28968° -117.50024° 8 min 0.02 0.01
90°
Apr 17, 07:11 33.28968° -117.50027° 2 min 0.02 0.00
Apr 17, 07:09 33.28968° -117.50027° 8 min 0.02 0.01
270°
Apr 17, 07:01 33.28968° -117.50024° 2 min 0.02 0.00
Apr 17, 06:59 33.28968° -117.50024° 8 min 0.02 0.00
Apr 17, 06:51 33.28968° -117.50024° 2 min 0.02 0.00
Apr 17, 06:49 33.28968° -117.50024° 8 min 0.02 0.01
301°
Apr 17, 06:41 33.28967° -117.50022° 2 min 0.02 0.00
Apr 17, 06:39 33.28967° -117.50022° 8 min 0.02 0.00
Apr 17, 06:31 33.28967° -117.50022° 2 min 0.02 0.00
Apr 17, 06:29 33.28967° -117.50022° 8 min 0.02 0.01
331°
Apr 17, 06:21 33.28965° -117.50021° 2 min 0.02 0.02
90°
Apr 17, 06:19 33.28965° -117.50022° 8 min 0.02 0.01
270°
Apr 17, 06:11 33.28965° -117.50021° 2 min 0.02 0.00
Apr 17, 06:09 33.28965° -117.50021° 7 min 0.02 0.00
Apr 17, 06:01 33.28965° -117.50021° 2 min 0.02 0.04
301°
Apr 17, 05:59 33.28964° -117.50018° 7 min 0.02 0.01
270°
Apr 17, 05:51 33.28964° -117.50016° 2 min 0.02 0.03
90°
Apr 17, 05:49 33.28964° -117.50018° 8 min 0.02 0.01
270°
Apr 17, 05:41 33.28964° -117.50016° 2 min 0.02 0.00
Apr 17, 05:39 33.28964° -117.50016° 7 min 0.02 0.01
Apr 17, 05:31 33.28962° -117.50016° 2 min 0.02 0.00
Apr 17, 05:29 33.28962° -117.50016° 7 min 0.02 0.00
Apr 17, 05:21 33.28962° -117.50016° 2 min 0.02 0.00
Apr 17, 05:19 33.28962° -117.50016° 7 min 0.02 0.01
270°
Apr 17, 05:11 33.28962° -117.50014° 2 min 0.02 0.03
270°
Apr 17, 05:09 33.28962° -117.50011° 7 min 0.02 0.00
Apr 17, 05:01 33.28962° -117.50011° 2 min 0.02 0.04
214°
Apr 17, 04:59 33.28964° -117.50010° 7 min 0.02 0.01
315°
Apr 17, 04:51 33.28962° -117.50008° 2 min 0.02 0.03
270°
Apr 17, 04:49 33.28962° -117.50005° 7 min 0.02 0.01
225°
Apr 17, 04:41 33.28964° -117.50003° 2 min 0.02 0.00
Apr 17, 04:39 33.28964° -117.50003° 7 min 0.02 0.01
Apr 17, 04:31 33.28962° -117.50003° 2 min 0.02 0.00
Apr 17, 04:29 33.28962° -117.50003° 7 min 0.02 0.01
180°
Apr 17, 04:21 33.28964° -117.50003° 2 min 0.02 0.03
Apr 17, 04:19 33.28962° -117.50003° 8 min 0.02 0.01
225°
Apr 17, 04:11 33.28964° -117.50001° 2 min 0.02 0.03
Apr 17, 04:09 33.28962° -117.50001° 7 min 0.02 0.02
90°
Apr 17, 04:01 33.28962° -117.50005° 2 min 0.02 0.03
180°
Apr 17, 03:59 33.28964° -117.50005° 8 min 0.02 0.01
270°
Apr 17, 03:51 33.28964° -117.50003° 2 min 0.02 0.00
Apr 17, 03:49 33.28964° -117.50003° 8 min 0.02 0.00
Apr 17, 03:41 33.28964° -117.50003° 2 min 0.02 0.03
270°
Apr 17, 03:39 33.28964° -117.50001° 7 min 0.02 0.02
90°
Apr 17, 03:31 33.28964° -117.50005° 2 min 0.02 0.03
270°
Apr 17, 03:29 33.28964° -117.50003° 7 min 0.02 0.01
Apr 17, 03:21 33.28962° -117.50003° 2 min 0.02 0.05
225°
Apr 17, 03:19 33.28964° -117.50001° 7 min 0.02 0.02
250°
Apr 17, 03:11 33.28965° -117.49997° 2 min 0.02 0.06
70°
Apr 17, 03:09 33.28964° -117.50001° 8 min 0.02 0.01
180°
Apr 17, 03:01 33.28965° -117.50001° 2 min 0.02 0.02
Apr 17, 02:59 33.28964° -117.50001° 8 min 0.02 0.01
228°
Apr 17, 02:51 33.28965° -117.49999° 2 min 0.02 0.00
Apr 17, 02:49 33.28965° -117.49999° 7 min 0.02 0.01
270°
Apr 17, 02:41 33.28965° -117.49997° 1 min 0.02 0.03
90°
Apr 17, 02:39 33.28965° -117.49999° 8 min 0.02 0.02
239°
Apr 17, 02:31 33.28967° -117.49995° 2 min 0.02 0.03
270°
Apr 17, 02:29 33.28967° -117.49992° 7 min 0.02 0.00
Apr 17, 02:21 33.28967° -117.49992° 2 min 0.02 0.00
Apr 17, 02:19 33.28967° -117.49992° 7 min 0.02 0.00
Apr 17, 02:11 33.28967° -117.49992° 2 min 0.02 0.00
Apr 17, 02:09 33.28967° -117.49992° 7 min 0.02 0.01
90°
Apr 17, 02:01 33.28967° -117.49995° 2 min 0.02 0.00
Apr 17, 01:59 33.28967° -117.49995° 7 min 0.02 0.03
259°
Apr 17, 01:51 33.28968° -117.49988° 2 min 0.02 0.03
90°
Apr 17, 01:49 33.28968° -117.49990° 37 min 0.02 0.00
270°
Apr 17, 01:11 33.28968° -117.49988° 2 min 0.02 0.03
180°
Apr 17, 01:09 33.28970° -117.49988° 8 min 0.02 0.01
326°
Apr 17, 01:01 33.28968° -117.49986° 2 min 0.02 0.03
180°
Apr 17, 00:59 33.28970° -117.49986° 8 min 0.02 0.01
239°
Apr 17, 00:51 33.28971° -117.49984° 2 min 0.02 0.03
90°
Apr 17, 00:49 33.28971° -117.49986° 7 min 0.02 0.02
228°
Apr 17, 00:41 33.28975° -117.49982° 2 min 0.02 0.07
29°
Apr 17, 00:39 33.28971° -117.49984° 7 min 0.02 0.02
180°
Apr 17, 00:31 33.28975° -117.49984° 2 min 0.02 0.08
244°
Apr 17, 00:29 33.28977° -117.49979° 7 min 0.02 0.01
90°
Apr 17, 00:21 33.28977° -117.49982° 2 min 0.02 0.03
270°
Apr 17, 00:19 33.28977° -117.49979° 7 min 0.02 0.01
180°
Apr 17, 00:11 33.28979° -117.49979° 2 min 0.02 0.00
Apr 17, 00:09 33.28979° -117.49979° 7 min 0.02 0.01
239°
Apr 17, 00:01 33.28980° -117.49977° 2 min 0.02 0.02
270°
Apr 16, 23:59 33.28980° -117.49976° 7 min 0.02 0.00
Apr 16, 23:51 33.28980° -117.49976° 2 min 0.02 0.03
180°
Apr 16, 23:49 33.28982° -117.49976° 7 min 0.02 0.02
253°
Apr 16, 23:41 33.28983° -117.49971° 1 min 0.02 0.03
90°
Apr 16, 23:39 33.28983° -117.49973° 8 min 0.02 0.01
180°
Apr 16, 23:31 33.28986° -117.49973° 2 min 0.02 0.00
Apr 16, 23:29 33.28986° -117.49973° 8 min 0.02 0.01
180°
Apr 16, 23:21 33.28987° -117.49973° 2 min 0.02 0.00
Apr 16, 23:19 33.28987° -117.49973° 7 min 0.02 0.01
225°
Apr 16, 23:11 33.28989° -117.49971° 2 min 0.02 0.03
90°
Apr 16, 23:09 33.28989° -117.49973° 7 min 0.02 0.02
205°
Apr 16, 23:01 33.28993° -117.49971° 2 min 0.02 0.01
Apr 16, 22:59 33.28992° -117.49971° 7 min 0.02 0.01
180°
Apr 16, 22:51 33.28995° -117.49971° 2 min 0.02 0.04
180°
Apr 16, 22:49 33.28997° -117.49971° 7 min 0.02 0.01
112°
Apr 16, 22:41 33.28998° -117.49973° 2 min 0.02 0.06
180°
Apr 16, 22:39 33.29002° -117.49973° 7 min 0.02 0.01
180°
Apr 16, 22:31 33.29004° -117.49973° 2 min 0.02 0.03
270°
Apr 16, 22:29 33.29004° -117.49971° 7 min 0.02 0.01
45°
Apr 16, 22:21 33.29002° -117.49973° 2 min 0.02 0.00
Apr 16, 22:19 33.29002° -117.49973° 7 min 0.02 0.02
212°
Apr 16, 22:11 33.29005° -117.49971° 2 min 0.02 0.07
90°
Apr 16, 22:09 33.29005° -117.49976° 7 min 0.02 0.01
270°
Apr 16, 22:01 33.29005° -117.49973° 2 min 0.02 0.00
Apr 16, 21:59 33.29005° -117.49973° 7 min 0.02 0.01
270°
Apr 16, 21:51 33.29005° -117.49971° 2 min 0.02 0.02
Apr 16, 21:49 33.29004° -117.49971° 7 min 0.02 0.01
121°
Apr 16, 21:41 33.29005° -117.49973° 2 min 0.02 0.02
Apr 16, 21:39 33.29004° -117.49973° 8 min 0.02 0.01
239°
Apr 16, 21:31 33.29005° -117.49971° 2 min 0.02 0.02
Apr 16, 21:29 33.29004° -117.49971° 8 min 0.02 0.02
180°
Apr 16, 21:21 33.29007° -117.49971° 2 min 0.02 0.04
Apr 16, 21:19 33.29005° -117.49971° 8 min 0.02 0.02
180°
Apr 16, 21:11 33.29008° -117.49971° 2 min 0.02 0.00
Apr 16, 21:09 33.29008° -117.49971° 7 min 0.02 0.01
Apr 16, 21:01 33.29007° -117.49971° 2 min 0.02 0.00
Apr 16, 20:59 33.29007° -117.49971° 7 min 0.02 0.00
Apr 16, 20:51 33.29007° -117.49971° 2 min 0.02 0.00
Apr 16, 20:49 33.29007° -117.49971° 7 min 0.02 0.00
Apr 16, 20:41 33.29007° -117.49971° 2 min 0.02 0.00
Apr 16, 20:39 33.29007° -117.49971° 7 min 0.02 0.01
Apr 16, 20:31 33.29005° -117.49971° 2 min 0.02 0.02
Apr 16, 20:29 33.29004° -117.49971° 7 min 0.02 0.00
Apr 16, 20:21 33.29004° -117.49971° 2 min 0.02 0.02
180°
Apr 16, 20:19 33.29005° -117.49971° 7 min 0.02 0.01
Apr 16, 20:11 33.29004° -117.49971° 2 min 0.02 0.02
180°
Apr 16, 20:09 33.29005° -117.49971° 8 min 0.02 0.01
90°
Apr 16, 20:01 33.29005° -117.49973° 2 min 0.02 0.02
Apr 16, 19:59 33.29004° -117.49973° 8 min 0.02 0.01
180°
Apr 16, 19:51 33.29005° -117.49973° 2 min 0.02 0.00
Apr 16, 19:49 33.29005° -117.49973° 8 min 0.02 0.00
Apr 16, 19:41 33.29005° -117.49973° 2 min 0.02 0.00
Apr 16, 19:39 33.29005° -117.49973° 7 min 0.02 0.01
180°
Apr 16, 19:31 33.29007° -117.49973° 2 min 0.02 0.03
270°
Apr 16, 19:29 33.29007° -117.49971° 7 min 0.02 0.02
107°
Apr 16, 19:21 33.29008° -117.49976° 2 min 0.02 0.03
180°
Apr 16, 19:19 33.29010° -117.49976° 7 min 0.02 0.00
Apr 16, 19:11 33.29010° -117.49976° 2 min 0.02 0.00
Apr 16, 19:09 33.29010° -117.49976° 7 min 0.02 0.01
90°
Apr 16, 19:01 33.29010° -117.49977° 2 min 0.02 0.02
270°
Apr 16, 18:59 33.29010° -117.49976° 7 min 0.02 0.02
160°
Apr 16, 18:51 33.29013° -117.49977° 2 min 0.02 0.02
270°
Apr 16, 18:49 33.29013° -117.49976° 7 min 0.02 0.01
90°
Apr 16, 18:41 33.29013° -117.49977° 2 min 0.02 0.00
Apr 16, 18:39 33.29013° -117.49977° 7 min 0.02 0.01
90°
Apr 16, 18:31 33.29013° -117.49979° 2 min 0.02 0.03
270°
Apr 16, 18:29 33.29013° -117.49977° 8 min 0.02 0.01
Apr 16, 18:21 33.29012° -117.49977° 2 min 0.02 0.04
121°
Apr 16, 18:19 33.29013° -117.49979° 8 min 0.02 0.01
180°
Apr 16, 18:11 33.29015° -117.49979° 2 min 0.02 0.03
270°
Apr 16, 18:09 33.29015° -117.49977° 7 min 0.02 0.01
Apr 16, 18:01 33.29013° -117.49977° 2 min 0.02 0.00
Apr 16, 17:59 33.29013° -117.49977° 8 min 0.02 0.01
Apr 16, 17:51 33.29012° -117.49977° 2 min 0.02 0.04
Apr 16, 17:49 33.29010° -117.49977° 7 min 0.02 0.01
Apr 16, 17:41 33.29008° -117.49977° 2 min 0.02 0.06
Apr 16, 17:39 33.29005° -117.49977° 7 min 0.02 0.05
Apr 16, 17:31 33.28993° -117.49977° 2 min 0.02 0.00
Apr 16, 17:29 33.28993° -117.49977° 7 min 0.02 0.02
180°
Apr 16, 17:21 33.28997° -117.49977° 2 min 0.02 0.00
Apr 16, 17:19 33.28997° -117.49977° 7 min 0.02 0.00
180°
Apr 16, 17:11 33.28998° -117.49977° 2 min 0.02 0.01
Apr 16, 17:09 33.28997° -117.49977° 7 min 0.02 0.03
180°
Apr 16, 17:01 33.29004° -117.49977° 2 min 0.02 0.06
32°
Apr 16, 16:59 33.29000° -117.49979° 7 min 0.02 0.05
149°
Apr 16, 16:51 33.29010° -117.49986° 2 min 0.02 0.04
180°
Apr 16, 16:49 33.29012° -117.49986° 7 min 0.02 0.01
180°
Apr 16, 16:41 33.29013° -117.49986° 2 min 0.02 0.02
90°
Apr 16, 16:39 33.29013° -117.49988° 7 min 0.02 0.00
Apr 16, 16:31 33.29013° -117.49988° 2 min 0.02 0.05
135°
Apr 16, 16:29 33.29015° -117.49990° 7 min 0.02 0.01
121°
Apr 16, 16:21 33.29016° -117.49992° 2 min 0.02 0.04
180°
Apr 16, 16:19 33.29019° -117.49992° 8 min 0.02 0.02
Apr 16, 16:11 33.29015° -117.49992° 2 min 0.02 0.04
239°
Apr 16, 16:09 33.29016° -117.49990° 7 min 0.02 0.01
59°
Apr 16, 16:01 33.29015° -117.49992° 2 min 0.02 0.05
315°
Apr 16, 15:59 33.29013° -117.49990° 7 min 0.02 0.02
148°
Apr 16, 15:51 33.29016° -117.49992° 2 min 0.02 0.02
Apr 16, 15:49 33.29015° -117.49992° 7 min 0.02 0.03
121°
Apr 16, 15:41 33.29019° -117.49999° 2 min 0.02 0.02
90°
Apr 16, 15:39 33.29019° -117.50001° 8 min 0.02 0.02
107°
Apr 16, 15:31 33.29020° -117.50005° 2 min 0.02 0.05
135°
Apr 16, 15:29 33.29022° -117.50008° 7 min 0.02 0.02
90°
Apr 16, 15:21 33.29022° -117.50014° 2 min 0.02 0.00
Apr 16, 15:19 33.29022° -117.50014° 7 min 0.02 0.03
72°
Apr 16, 15:11 33.29020° -117.50021° 2 min 0.02 0.04
146°
Apr 16, 15:09 33.29022° -117.50022° 8 min 0.02 0.01
Apr 16, 15:01 33.29019° -117.50022° 2 min 0.01 0.07
107°
Apr 16, 14:59 33.29020° -117.50027° 8 min 0.02 0.02
48°
Apr 16, 14:51 33.29016° -117.50031° 2 min 0.02 0.02
Apr 16, 14:49 33.29015° -117.50031° 7 min 0.02 0.00
Apr 16, 14:41 33.29015° -117.50031° 2 min 0.02 0.02
180°
Apr 16, 14:39 33.29016° -117.50031° 8 min 0.02 0.01
48°
Apr 16, 14:31 33.29015° -117.50033° 2 min 0.02 0.03
228°
Apr 16, 14:29 33.29016° -117.50031° 8 min 0.02 0.01
23°
Apr 16, 14:21 33.29013° -117.50033° 2 min 0.01 0.03
90°
Apr 16, 14:19 33.29013° -117.50035° 8 min 0.02 0.05
21°
Apr 16, 14:11 33.29004° -117.50040° 2 min 0.01 0.05
45°
Apr 16, 14:09 33.29002° -117.50042° 8 min 0.02 0.01
180°
Apr 16, 14:01 33.29004° -117.50042° 2 min 0.02 0.03
270°
Apr 16, 13:59 33.29004° -117.50040° 7 min 0.01 0.04
13°
Apr 16, 13:51 33.28995° -117.50042° 2 min 0.01 0.04
Apr 16, 13:49 33.28993° -117.50042° 7 min 0.01 0.02
157°
Apr 16, 13:41 33.28997° -117.50044° 2 min 0.02 0.04
248°
Apr 16, 13:39 33.28998° -117.50042° 7 min 0.01 0.01
220°
Apr 16, 13:31 33.29000° -117.50040° 2 min 0.01 0.00
Apr 16, 13:29 33.29000° -117.50040° 7 min 0.01 0.01
Apr 16, 13:21 33.28998° -117.50040° 2 min 0.01 0.04
180°
Apr 16, 13:19 33.29000° -117.50040° 7 min 0.01 0.02
205°
Apr 16, 13:11 33.29005° -117.50037° 2 min 0.01 0.04
180°
Apr 16, 13:09 33.29007° -117.50037° 8 min 0.01 0.02
29°
Apr 16, 13:01 33.29004° -117.50040° 2 min 0.01 0.04
239°
Apr 16, 12:59 33.29005° -117.50037° 8 min 0.01 0.00
Apr 16, 12:51 33.29005° -117.50037° 2 min 0.01 0.04
59°
Apr 16, 12:49 33.29004° -117.50040° 8 min 0.01 0.03
196°
Apr 16, 12:41 33.29010° -117.50037° 2 min 0.02 0.05
45°
Apr 16, 12:39 33.29008° -117.50040° 8 min 0.02 0.05
21°
Apr 16, 12:31 33.28998° -117.50044° 2 min 0.02 0.00
Apr 16, 12:29 33.28998° -117.50044° 8 min 0.02 0.05
191°
Apr 16, 12:21 33.29008° -117.50042° 2 min 0.02 0.03
270°
Apr 16, 12:19 33.29008° -117.50040° 8 min 0.02 0.04
27°
Apr 16, 12:11 33.29000° -117.50044° 2 min 0.02 0.02
180°
Apr 16, 12:09 33.29002° -117.50044° 8 min 0.02 0.01
Apr 16, 12:01 33.29000° -117.50044° 2 min 0.02 0.02
180°
Apr 16, 11:59 33.29002° -117.50044° 7 min 0.02 0.00
Apr 16, 11:51 33.29002° -117.50044° 2 min 0.02 0.00
Apr 16, 11:49 33.29002° -117.50044° 8 min 0.02 0.01
90°
Apr 16, 11:41 33.29002° -117.50046° 2 min 0.02 0.02
270°
Apr 16, 11:39 33.29002° -117.50044° 7 min 0.02 0.01
48°
Apr 16, 11:31 33.29000° -117.50046° 2 min 0.02 0.02
180°
Apr 16, 11:29 33.29002° -117.50046° 7 min 0.02 0.01
Apr 16, 11:21 33.29000° -117.50046° 2 min 0.02 0.00
Apr 16, 11:19 33.29000° -117.50046° 7 min 0.02 0.01
180°
Apr 16, 11:11 33.29002° -117.50046° 2 min 0.02 0.00
Apr 16, 11:09 33.29002° -117.50046° 8 min 0.02 0.01
180°
Apr 16, 11:01 33.29004° -117.50046° 2 min 0.02 0.00
Apr 16, 10:59 33.29004° -117.50046° 8 min 0.02 0.02
200°
Apr 16, 10:51 33.29007° -117.50044° 2 min 0.02 0.04
Apr 16, 10:49 33.29005° -117.50044° 7 min 0.02 0.01
23°
Apr 16, 10:41 33.29002° -117.50046° 2 min 0.02 0.03
312°
Apr 16, 10:39 33.29000° -117.50044° 8 min 0.02 0.03
Apr 16, 10:31 33.28993° -117.50046° 2 min 0.02 0.00
Apr 16, 10:29 33.28993° -117.50046° 7 min 0.02 0.01
Apr 16, 10:21 33.28990° -117.50046° 2 min 0.02 0.00
Apr 16, 10:19 33.28990° -117.50046° 8 min 0.02 0.01
Apr 16, 10:11 33.28987° -117.50046° 2 min 0.02 0.00
Apr 16, 10:09 33.28987° -117.50046° 8 min 0.02 0.00
Apr 16, 10:01 33.28987° -117.50046° 2 min 0.02 0.02
Apr 16, 09:59 33.28986° -117.50046° 8 min 0.02 0.01
Apr 16, 09:51 33.28983° -117.50046° 2 min 0.02 0.00
Apr 16, 09:49 33.28983° -117.50046° 7 min 0.02 0.00
Apr 16, 09:41 33.28983° -117.50046° 2 min 0.02 0.04
180°
Apr 16, 09:39 33.28986° -117.50046° 8 min 0.02 0.01
331°
Apr 16, 09:31 33.28983° -117.50044° 2 min 0.02 0.02
Apr 16, 09:29 33.28982° -117.50044° 8 min 0.02 0.00
Apr 16, 09:21 33.28982° -117.50044° 2 min 0.02 0.00
Apr 16, 09:19 33.28982° -117.50044° 7 min 0.02 0.01
132°
Apr 16, 09:11 33.28983° -117.50046° 2 min 0.02 0.02
270°
Apr 16, 09:09 33.28983° -117.50044° 7 min 0.02 0.01
270°
Apr 16, 09:01 33.28983° -117.50042° 2 min 0.02 0.02
Apr 16, 08:59 33.28982° -117.50042° 8 min 0.02 0.01
180°
Apr 16, 08:51 33.28983° -117.50042° 2 min 0.02 0.05
140°
Apr 16, 08:49 33.28986° -117.50044° 7 min 0.02 0.02
Apr 16, 08:41 33.28982° -117.50044° 2 min 0.02 0.00
Apr 16, 08:39 33.28982° -117.50044° 8 min 0.02 0.02
328°
Apr 16, 08:31 33.28979° -117.50042° 2 min 0.02 0.00
Apr 16, 08:29 33.28979° -117.50042° 7 min 0.02 0.01
320°
Apr 16, 08:21 33.28977° -117.50040° 2 min 0.02 0.03
Apr 16, 08:19 33.28975° -117.50040° 7 min 0.02 0.01
180°
Apr 16, 08:11 33.28977° -117.50040° 2 min 0.02 0.05
45°
Apr 16, 08:09 33.28975° -117.50042° 8 min 0.02 0.01
301°
Apr 16, 08:01 33.28974° -117.50040° 2 min 0.02 0.02
180°
Apr 16, 07:59 33.28975° -117.50040° 7 min 0.02 0.01
270°
Apr 16, 07:51 33.28975° -117.50037° 2 min 0.02 0.00
Apr 16, 07:49 33.28975° -117.50037° 8 min 0.02 0.01
Apr 16, 07:41 33.28974° -117.50037° 2 min 0.02 0.00
Apr 16, 07:39 33.28974° -117.50037° 7 min 0.02 0.01
180°
Apr 16, 07:31 33.28975° -117.50037° 2 min 0.02 0.00
Apr 16, 07:29 33.28975° -117.50037° 7 min 0.02 0.00
Apr 16, 07:21 33.28975° -117.50037° 2 min 0.02 0.00
Apr 16, 07:19 33.28975° -117.50037° 7 min 0.02 0.01
301°
Apr 16, 07:11 33.28974° -117.50035° 2 min 0.02 0.03
270°
Apr 16, 07:09 33.28974° -117.50033° 8 min 0.02 0.01
331°
Apr 16, 07:01 33.28971° -117.50031° 2 min 0.02 0.04
180°
Apr 16, 06:59 33.28974° -117.50031° 7 min 0.02 0.01
320°
Apr 16, 06:51 33.28971° -117.50029° 2 min 0.02 0.00
Apr 16, 06:49 33.28971° -117.50029° 7 min 0.02 0.01
301°
Apr 16, 06:41 33.28970° -117.50027° 2 min 0.02 0.00
Apr 16, 06:39 33.28970° -117.50027° 8 min 0.02 0.02
296°
Apr 16, 06:31 33.28968° -117.50022° 2 min 0.02 0.00
Apr 16, 06:29 33.28968° -117.50022° 7 min 0.02 0.01
90°
Apr 16, 06:21 33.28968° -117.50024° 2 min 0.02 0.02
Apr 16, 06:19 33.28967° -117.50024° 8 min 0.02 0.02
270°
Apr 16, 06:11 33.28967° -117.50018° 2 min 0.02 0.00
Apr 16, 06:09 33.28967° -117.50018° 7 min 0.02 0.01
320°
Apr 16, 06:01 33.28965° -117.50016° 2 min 0.02 0.00
Apr 16, 05:59 33.28965° -117.50016° 7 min 0.02 0.03
246°
Apr 16, 05:51 33.28967° -117.50010° 2 min 0.02 0.03
270°
Apr 16, 05:49 33.28967° -117.50008° 7 min 0.02 0.01
320°
Apr 16, 05:41 33.28965° -117.50005° 2 min 0.02 0.04
180°
Apr 16, 05:39 33.28967° -117.50005° 7 min 0.02 0.01
320°
Apr 16, 05:31 33.28965° -117.50003° 2 min 0.02 0.00
Apr 16, 05:29 33.28965° -117.50003° 8 min 0.02 0.01
Apr 16, 05:21 33.28964° -117.50003° 2 min 0.02 0.04
239°
Apr 16, 05:19 33.28965° -117.50001° 8 min 0.02 0.00
Apr 16, 05:11 33.28965° -117.50001° 2 min 0.02 0.02
Apr 16, 05:09 33.28964° -117.50001° 7 min 0.02 0.01
180°
Apr 16, 05:01 33.28965° -117.50001° 2 min 0.02 0.00
Apr 16, 04:59 33.28965° -117.50001° 8 min 0.02 0.01
Apr 16, 04:51 33.28964° -117.50001° 2 min 0.02 0.02
180°
Apr 16, 04:49 33.28965° -117.50001° 8 min 0.02 0.01
Apr 16, 04:41 33.28964° -117.50001° 2 min 0.02 0.02
180°
Apr 16, 04:39 33.28965° -117.50001° 8 min 0.02 0.01
Apr 16, 04:31 33.28964° -117.50001° 2 min 0.02 0.02
180°
Apr 16, 04:29 33.28965° -117.50001° 7 min 0.02 0.01
Apr 16, 04:21 33.28964° -117.50001° 2 min 0.02 0.02
180°
Apr 16, 04:19 33.28965° -117.50001° 7 min 0.02 0.01
270°
Apr 16, 04:11 33.28965° -117.49999° 2 min 0.02 0.03
270°
Apr 16, 04:09 33.28965° -117.49997° 7 min 0.02 0.01
90°
Apr 16, 04:01 33.28965° -117.49999° 2 min 0.02 0.00
Apr 16, 03:59 33.28965° -117.49999° 7 min 0.02 0.01
270°
Apr 16, 03:51 33.28965° -117.49997° 2 min 0.02 0.05
140°
Apr 16, 03:49 33.28967° -117.49999° 7 min 0.02 0.01
320°
Apr 16, 03:41 33.28965° -117.49997° 2 min 0.02 0.00
Apr 16, 03:39 33.28965° -117.49997° 7 min 0.02 0.01
270°
Apr 16, 03:31 33.28965° -117.49995° 2 min 0.02 0.05
140°
Apr 16, 03:29 33.28967° -117.49997° 8 min 0.02 0.02
270°
Apr 16, 03:21 33.28967° -117.49992° 2 min 0.02 0.02
180°
Apr 16, 03:19 33.28968° -117.49992° 8 min 0.02 0.01
Apr 16, 03:11 33.28967° -117.49992° 2 min 0.02 0.00
Apr 16, 03:09 33.28967° -117.49992° 7 min 0.02 0.01
Apr 16, 03:01 33.28965° -117.49992° 2 min 0.02 0.05
140°
Apr 16, 02:59 33.28967° -117.49995° 7 min 0.02 0.01
239°
Apr 16, 02:51 33.28968° -117.49992° 2 min 0.02 0.00
Apr 16, 02:49 33.28968° -117.49992° 8 min 0.02 0.01
59°
Apr 16, 02:41 33.28967° -117.49995° 2 min 0.02 0.03
90°
Apr 16, 02:39 33.28967° -117.49997° 7 min 0.02 0.01
239°
Apr 16, 02:31 33.28968° -117.49995° 2 min 0.02 0.00
Apr 16, 02:29 33.28968° -117.49995° 7 min 0.02 0.01
90°
Apr 16, 02:21 33.28968° -117.49997° 2 min 0.02 0.00
Apr 16, 02:19 33.28968° -117.49997° 8 min 0.02 0.00
Apr 16, 02:11 33.28968° -117.49997° 2 min 0.02 0.03
90°
Apr 16, 02:09 33.28968° -117.49999° 7 min 0.02 0.02
270°
Apr 16, 02:01 33.28968° -117.49995° 2 min 0.02 0.03
180°
Apr 16, 01:59 33.28970° -117.49995° 7 min 0.02 0.03
59°
Apr 16, 01:51 33.28967° -117.50001° 2 min 0.02 0.00
Apr 16, 01:49 33.28967° -117.50001° 7 min 0.02 0.00
Apr 16, 01:41 33.28967° -117.50001° 2 min 0.02 0.00
Apr 16, 01:39 33.28967° -117.50001° 7 min 0.02 0.00
Apr 16, 01:31 33.28967° -117.50001° 2 min 0.02 0.00
Apr 16, 01:29 33.28967° -117.50001° 7 min 0.02 0.02
90°
Apr 16, 01:21 33.28967° -117.50005° 2 min 0.02 0.05
320°
Apr 16, 01:19 33.28965° -117.50003° 7 min 0.02 0.02
234°
Apr 16, 01:11 33.28967° -117.49999° 2 min 0.02 0.03
270°
Apr 16, 01:09 33.28967° -117.49997° 8 min 0.02 0.02
231°
Apr 16, 01:01 33.28970° -117.49992° 2 min 0.02 0.07
209°
Apr 16, 00:59 33.28974° -117.49990° 8 min 0.02 0.01
180°
Apr 16, 00:51 33.28975° -117.49990° 2 min 0.02 0.00
Apr 16, 00:49 33.28975° -117.49990° 8 min 0.02 0.05
220°
Apr 16, 00:41 33.28983° -117.49982° 2 min 0.02 0.03
270°
Apr 16, 00:39 33.28983° -117.49979° 8 min 0.02 0.02
209°
Apr 16, 00:31 33.28987° -117.49977° 2 min 0.02 0.00
Apr 16, 00:29 33.28987° -117.49977° 8 min 0.02 0.03
192°
Apr 16, 00:21 33.28993° -117.49976° 2 min 0.02 0.04
180°
Apr 16, 00:19 33.28995° -117.49976° 8 min 0.02 0.01
180°
Apr 16, 00:11 33.28998° -117.49976° 2 min 0.02 0.03
59°
Apr 16, 00:09 33.28997° -117.49977° 8 min 0.02 0.01
270°
Apr 16, 00:01 33.28997° -117.49976° 2 min 0.02 0.03
270°
Apr 15, 23:59 33.28997° -117.49973° 8 min 0.02 0.03
31°
Apr 15, 23:51 33.28992° -117.49977° 2 min 0.02 0.01
180°
Apr 15, 23:49 33.28993° -117.49977° 8 min 0.02 0.01
270°
Apr 15, 23:41 33.28993° -117.49976° 2 min 0.02 0.00
Apr 15, 23:39 33.28993° -117.49976° 8 min 0.02 0.03
171°
Apr 15, 23:31 33.29000° -117.49977° 2 min 0.02 0.02
180°
Apr 15, 23:29 33.29002° -117.49977° 7 min 0.02 0.01
180°
Apr 15, 23:21 33.29005° -117.49977° 2 min 0.02 0.04
180°
Apr 15, 23:19 33.29007° -117.49977° 8 min 0.02 0.03
144°
Apr 15, 23:11 33.29012° -117.49982° 2 min 0.02 0.07
107°
Apr 15, 23:09 33.29013° -117.49986° 7 min 0.02 0.03
169°
Apr 15, 23:01 33.29020° -117.49988° 2 min 0.02 0.03
90°
Apr 15, 22:59 33.29020° -117.49990° 7 min 0.02 0.03
144°
Apr 15, 22:51 33.29025° -117.49995° 2 min 0.02 0.07
90°
Apr 15, 22:49 33.29025° -117.49999° 7 min 0.02 0.03
90°
Apr 15, 22:41 33.29025° -117.50008° 2 min 0.02 0.00
Apr 15, 22:39 33.29025° -117.50008° 7 min 0.02 0.03
114°
Apr 15, 22:31 33.29028° -117.50016° 2 min 0.02 0.00
Apr 15, 22:29 33.29028° -117.50016° 8 min 0.02 0.02
77°
Apr 15, 22:21 33.29027° -117.50022° 2 min 0.02 0.07
90°
Apr 15, 22:19 33.29027° -117.50027° 8 min 0.02 0.02
64°
Apr 15, 22:11 33.29025° -117.50031° 2 min 0.02 0.00
Apr 15, 22:09 33.29025° -117.50031° 7 min 0.02 0.00
Apr 15, 22:01 33.29025° -117.50031° 2 min 0.02 0.03
180°
Apr 15, 21:59 33.29027° -117.50031° 7 min 0.02 0.01
90°
Apr 15, 21:51 33.29027° -117.50033° 2 min 0.02 0.05
45°
Apr 15, 21:49 33.29025° -117.50035° 7 min 0.02 0.03
239°
Apr 15, 21:41 33.29028° -117.50029° 2 min 0.02 0.04
59°
Apr 15, 21:39 33.29027° -117.50031° 7 min 0.02 0.01
270°
Apr 15, 21:31 33.29027° -117.50029° 2 min 0.02 0.03
90°
Apr 15, 21:29 33.29027° -117.50031° 7 min 0.02 0.00
Apr 15, 21:21 33.29027° -117.50031° 2 min 0.02 0.02
90°
Apr 15, 21:19 33.29027° -117.50033° 7 min 0.02 0.01
Apr 15, 21:11 33.29025° -117.50033° 2 min 0.02 0.03
180°
Apr 15, 21:09 33.29027° -117.50033° 7 min 0.02 0.02
Apr 15, 21:01 33.29023° -117.50033° 2 min 0.02 0.07
180°
Apr 15, 20:59 33.29027° -117.50033° 7 min 0.02 0.00
Apr 15, 20:51 33.29027° -117.50033° 2 min 0.02 0.05
45°
Apr 15, 20:49 33.29025° -117.50035° 7 min 0.02 0.00
Apr 15, 20:41 33.29025° -117.50035° 2 min 0.02 0.03
270°
Apr 15, 20:39 33.29025° -117.50033° 7 min 0.02 0.01
90°
Apr 15, 20:31 33.29025° -117.50035° 2 min 0.02 0.07
239°
Apr 15, 20:29 33.29027° -117.50031° 8 min 0.02 0.02
37°
Apr 15, 20:21 33.29023° -117.50035° 2 min 0.02 0.03
90°
Apr 15, 20:19 33.29023° -117.50037° 7 min 0.02 0.01
270°
Apr 15, 20:11 33.29023° -117.50035° 2 min 0.02 0.05
220°
Apr 15, 20:09 33.29025° -117.50033° 7 min 0.02 0.01
40°
Apr 15, 20:01 33.29023° -117.50035° 2 min 0.02 0.05
220°
Apr 15, 19:59 33.29025° -117.50033° 7 min 0.02 0.01
214°
Apr 15, 19:51 33.29027° -117.50031° 2 min 0.02 0.00
Apr 15, 19:49 33.29027° -117.50031° 7 min 0.02 0.01
34°
Apr 15, 19:41 33.29025° -117.50033° 2 min 0.02 0.04
214°
Apr 15, 19:39 33.29027° -117.50031° 7 min 0.02 0.01
239°
Apr 15, 19:31 33.29028° -117.50029° 2 min 0.02 0.06
70°
Apr 15, 19:29 33.29027° -117.50033° 7 min 0.02 0.01
Apr 15, 19:21 33.29025° -117.50033° 2 min 0.02 0.03
90°
Apr 15, 19:19 33.29025° -117.50035° 7 min 0.02 0.01
225°
Apr 15, 19:11 33.29027° -117.50033° 2 min 0.02 0.03
Apr 15, 19:09 33.29025° -117.50033° 7 min 0.02 0.00
Apr 15, 19:01 33.29025° -117.50033° 2 min 0.02 0.04
214°
Apr 15, 18:59 33.29027° -117.50031° 7 min 0.02 0.01
Apr 15, 18:51 33.29025° -117.50031° 2 min 0.02 0.00
Apr 15, 18:49 33.29025° -117.50031° 7 min 0.02 0.03
56°
Apr 15, 18:41 33.29022° -117.50037° 2 min 0.02 0.00
Apr 15, 18:39 33.29022° -117.50037° 7 min 0.02 0.00
Apr 15, 18:31 33.29022° -117.50037° 2 min 0.02 0.03
270°
Apr 15, 18:29 33.29022° -117.50035° 7 min 0.02 0.01
45°
Apr 15, 18:21 33.29020° -117.50037° 2 min 0.02 0.00
Apr 15, 18:19 33.29020° -117.50037° 7 min 0.02 0.01
180°
Apr 15, 18:11 33.29022° -117.50037° 2 min 0.02 0.03
Apr 15, 18:09 33.29020° -117.50037° 7 min 0.02 0.03
239°
Apr 15, 18:01 33.29023° -117.50031° 2 min 0.02 0.05
220°
Apr 15, 17:59 33.29025° -117.50029° 7 min 0.02 0.03
20°
Apr 15, 17:51 33.29020° -117.50031° 2 min 0.02 0.03
180°
Apr 15, 17:49 33.29022° -117.50031° 8 min 0.02 0.01
180°
Apr 15, 17:41 33.29023° -117.50031° 2 min 0.02 0.06
23°
Apr 15, 17:39 33.29020° -117.50033° 7 min 0.02 0.02
48°
Apr 15, 17:31 33.29016° -117.50037° 2 min 0.02 0.02
Apr 15, 17:29 33.29015° -117.50037° 7 min 0.02 0.00
Apr 15, 17:21 33.29015° -117.50037° 2 min 0.02 0.00
Apr 15, 17:19 33.29015° -117.50037° 7 min 0.02 0.01
90°
Apr 15, 17:11 33.29015° -117.50040° 2 min 0.02 0.03
Apr 15, 17:09 33.29013° -117.50040° 7 min 0.02 0.01
90°
Apr 15, 17:01 33.29013° -117.50042° 2 min 0.02 0.02
Apr 15, 16:59 33.29012° -117.50042° 7 min 0.02 0.01
Apr 15, 16:51 33.29010° -117.50042° 2 min 0.02 0.00
Apr 15, 16:49 33.29010° -117.50042° 7 min 0.02 0.03
31°
Apr 15, 16:41 33.29005° -117.50046° 2 min 0.02 0.00
Apr 15, 16:39 33.29005° -117.50046° 7 min 0.02 0.04
203°
Apr 15, 16:31 33.29012° -117.50042° 2 min 0.02 0.02
180°
Apr 15, 16:29 33.29013° -117.50042° 7 min 0.02 0.01
Apr 15, 16:21 33.29012° -117.50042° 2 min 0.02 0.00
Apr 15, 16:19 33.29012° -117.50042° 7 min 0.02 0.02
25°
Apr 15, 16:11 33.29008° -117.50044° 2 min 0.02 0.00
Apr 15, 16:09 33.29008° -117.50044° 7 min 0.02 0.01
180°
Apr 15, 16:01 33.29010° -117.50044° 2 min 0.02 0.00
Apr 15, 15:59 33.29010° -117.50044° 7 min 0.02 0.00
Apr 15, 15:51 33.29010° -117.50044° 2 min 0.02 0.02
90°
Apr 15, 15:49 33.29010° -117.50046° 7 min 0.02 0.01
Apr 15, 15:41 33.29008° -117.50046° 2 min 0.02 0.00
Apr 15, 15:39 33.29008° -117.50046° 7 min 0.02 0.01
Apr 15, 15:31 33.29007° -117.50046° 2 min 0.02 0.00
Apr 15, 15:29 33.29007° -117.50046° 7 min 0.02 0.01
228°
Apr 15, 15:21 33.29008° -117.50044° 2 min 0.02 0.03
180°
Apr 15, 15:19 33.29010° -117.50044° 7 min 0.02 0.02
13°
Apr 15, 15:11 33.29005° -117.50046° 2 min 0.02 0.00
Apr 15, 15:09 33.29005° -117.50046° 7 min 0.02 0.01
209°
Apr 15, 15:01 33.29007° -117.50044° 2 min 0.02 0.02
180°
Apr 15, 14:59 33.29008° -117.50044° 7 min 0.02 0.00
Apr 15, 14:51 33.29008° -117.50044° 2 min 0.02 0.00
Apr 15, 14:49 33.29008° -117.50044° 8 min 0.02 0.01
Apr 15, 14:41 33.29007° -117.50044° 2 min 0.02 0.00
Apr 15, 14:39 33.29007° -117.50044° 7 min 0.02 0.01
29°
Apr 15, 14:31 33.29005° -117.50046° 2 min 0.02 0.00
Apr 15, 14:29 33.29005° -117.50046° 7 min 0.02 0.02
180°
Apr 15, 14:21 33.29008° -117.50046° 2 min 0.02 0.04
214°
Apr 15, 14:19 33.29010° -117.50044° 7 min 0.02 0.01
220°
Apr 15, 14:11 33.29012° -117.50042° 2 min 0.02 0.05
40°
Apr 15, 14:09 33.29010° -117.50044° 7 min 0.02 0.00
Apr 15, 14:01 33.29010° -117.50044° 2 min 0.02 0.05
220°
Apr 15, 13:59 33.29012° -117.50042° 7 min 0.02 0.01
239°
Apr 15, 13:51 33.29013° -117.50040° 2 min 0.02 0.03
90°
Apr 15, 13:49 33.29013° -117.50042° 8 min 0.02 0.00
Apr 15, 13:41 33.29013° -117.50042° 2 min 0.02 0.02
Apr 15, 13:39 33.29012° -117.50042° 7 min 0.02 0.01
239°
Apr 15, 13:31 33.29013° -117.50040° 2 min 0.02 0.05
225°
Apr 15, 13:29 33.29015° -117.50037° 7 min 0.02 0.02
51°
Apr 15, 13:21 33.29012° -117.50042° 2 min 0.02 0.02
180°
Apr 15, 13:19 33.29013° -117.50042° 7 min 0.02 0.02
Apr 15, 13:11 33.29010° -117.50042° 2 min 0.02 0.05
220°
Apr 15, 13:09 33.29012° -117.50040° 7 min 0.02 0.01
180°
Apr 15, 13:01 33.29015° -117.50040° 2 min 0.02 0.05
315°
Apr 15, 12:59 33.29013° -117.50037° 7 min 0.02 0.02
73°
Apr 15, 12:51 33.29012° -117.50042° 2 min 0.02 0.02
180°
Apr 15, 12:49 33.29013° -117.50042° 7 min 0.02 0.02
29°
Apr 15, 12:41 33.29010° -117.50044° 2 min 0.02 0.03
Apr 15, 12:39 33.29008° -117.50044° 7 min 0.02 0.01
146°
Apr 15, 12:31 33.29010° -117.50046° 2 min 0.02 0.04
180°
Apr 15, 12:29 33.29012° -117.50046° 7 min 0.02 0.00
Apr 15, 12:21 33.29012° -117.50046° 2 min 0.02 0.00
Apr 15, 12:19 33.29012° -117.50046° 7 min 0.02 0.01
228°
Apr 15, 12:11 33.29013° -117.50044° 2 min 0.02 0.03
48°
Apr 15, 12:09 33.29012° -117.50046° 7 min 0.02 0.02
Apr 15, 12:01 33.29008° -117.50046° 2 min 0.02 0.00
Apr 15, 11:59 33.29008° -117.50046° 7 min 0.02 0.02
29°
Apr 15, 11:51 33.29005° -117.50048° 2 min 0.02 0.03
270°
Apr 15, 11:49 33.29005° -117.50046° 7 min 0.02 0.02
180°
Apr 15, 11:41 33.29008° -117.50046° 2 min 0.02 0.00
Apr 15, 11:39 33.29008° -117.50046° 8 min 0.02 0.00
Apr 15, 11:31 33.29008° -117.50046° 2 min 0.02 0.02
Apr 15, 11:29 33.29007° -117.50046° 8 min 0.02 0.01
180°
Apr 15, 11:21 33.29008° -117.50046° 2 min 0.02 0.02
Apr 15, 11:19 33.29007° -117.50046° 7 min 0.02 0.02
Apr 15, 11:11 33.29004° -117.50046° 2 min 0.02 0.00
Apr 15, 11:09 33.29004° -117.50046° 7 min 0.02 0.02
180°
Apr 15, 11:01 33.29007° -117.50046° 2 min 0.02 0.00
Apr 15, 10:59 33.29007° -117.50046° 7 min 0.02 0.01
Apr 15, 10:51 33.29005° -117.50046° 2 min 0.02 0.00
Apr 15, 10:49 33.29005° -117.50046° 7 min 0.02 0.02
25°
Apr 15, 10:41 33.29000° -117.50048° 2 min 0.02 0.03
270°
Apr 15, 10:39 33.29000° -117.50046° 7 min 0.02 0.01
40°
Apr 15, 10:31 33.28998° -117.50048° 2 min 0.02 0.01
Apr 15, 10:29 33.28997° -117.50048° 7 min 0.02 0.02
180°
Apr 15, 10:21 33.29002° -117.50048° 2 min 0.02 0.03
270°
Apr 15, 10:19 33.29002° -117.50046° 7 min 0.02 0.01
180°
Apr 15, 10:11 33.29004° -117.50046° 2 min 0.02 0.05
Apr 15, 10:09 33.29000° -117.50046° 7 min 0.02 0.00
Apr 15, 10:01 33.29000° -117.50046° 2 min 0.02 0.00
Apr 15, 09:59 33.29000° -117.50046° 7 min 0.02 0.01
Apr 15, 09:51 33.28998° -117.50046° 2 min 0.02 0.04
180°
Apr 15, 09:49 33.29000° -117.50046° 8 min 0.02 0.01
228°
Apr 15, 09:41 33.29002° -117.50044° 2 min 0.02 0.02
90°
Apr 15, 09:39 33.29002° -117.50046° 8 min 0.02 0.00
Apr 15, 09:31 33.29002° -117.50046° 2 min 0.02 0.00
Apr 15, 09:29 33.29002° -117.50046° 8 min 0.02 0.01
214°
Apr 15, 09:21 33.29004° -117.50044° 2 min 0.02 0.00
Apr 15, 09:19 33.29004° -117.50044° 8 min 0.02 0.01
Apr 15, 09:11 33.29002° -117.50044° 2 min 0.02 0.00
Apr 15, 09:09 33.29002° -117.50044° 8 min 0.02 0.01
180°
Apr 15, 09:01 33.29004° -117.50044° 2 min 0.02 0.03
270°
Apr 15, 08:59 33.29004° -117.50042° 8 min 0.02 0.01
45°
Apr 15, 08:51 33.29002° -117.50044° 2 min 0.02 0.02
90°
Apr 15, 08:49 33.29002° -117.50046° 8 min 0.02 0.00
Apr 15, 08:41 33.29002° -117.50046° 2 min 0.02 0.02
Apr 15, 08:39 33.29000° -117.50046° 7 min 0.02 0.01
228°
Apr 15, 08:31 33.29002° -117.50044° 2 min 0.02 0.03
180°
Apr 15, 08:29 33.29004° -117.50044° 7 min 0.02 0.02
13°
Apr 15, 08:21 33.28998° -117.50046° 2 min 0.02 0.01
Apr 15, 08:19 33.28997° -117.50046° 8 min 0.02 0.01
180°
Apr 15, 08:11 33.29000° -117.50046° 2 min 0.02 0.05
180°
Apr 15, 08:09 33.29004° -117.50046° 8 min 0.02 0.01
Apr 15, 08:01 33.29002° -117.50046° 2 min 0.02 0.03
180°
Apr 15, 07:59 33.29004° -117.50046° 8 min 0.02 0.01
Apr 15, 07:51 33.29000° -117.50046° 2 min 0.02 0.00
Apr 15, 07:49 33.29000° -117.50046° 8 min 0.02 0.00
Apr 15, 07:41 33.29000° -117.50046° 2 min 0.02 0.04
Apr 15, 07:39 33.28998° -117.50046° 8 min 0.02 0.00
Apr 15, 07:31 33.28998° -117.50046° 2 min 0.02 0.04
180°
Apr 15, 07:29 33.29000° -117.50046° 8 min 0.02 0.01
337°
Apr 15, 07:21 33.28997° -117.50044° 2 min 0.02 0.00
Apr 15, 07:19 33.28997° -117.50044° 7 min 0.02 0.01
121°
Apr 15, 07:11 33.28998° -117.50046° 2 min 0.02 0.03
301°
Apr 15, 07:09 33.28997° -117.50044° 7 min 0.02 0.01
Apr 15, 07:01 33.28995° -117.50044° 2 min 0.02 0.00
Apr 15, 06:59 33.28995° -117.50044° 8 min 0.02 0.03
200°
Apr 15, 06:51 33.29000° -117.50042° 2 min 0.01 0.00
Apr 15, 06:49 33.29000° -117.50042° 8 min 0.01 0.08
227°
Apr 15, 06:41 33.29012° -117.50027° 2 min 0.01 0.03
270°
Apr 15, 06:39 33.29012° -117.50024° 8 min 0.01 0.03
261°
Apr 15, 06:31 33.29013° -117.50016° 2 min 0.01 0.08
244°
Apr 15, 06:29 33.29015° -117.50011° 7 min 0.01 0.04
307°
Apr 15, 06:21 33.29010° -117.50003° 2 min 0.01 0.05
315°
Apr 15, 06:19 33.29008° -117.50001° 7 min 0.01 0.05
333°
Apr 15, 06:11 33.28998° -117.49995° 2 min 0.01 0.03
270°
Apr 15, 06:09 33.28998° -117.49992° 7 min 0.01 0.03
324°
Apr 15, 06:01 33.28993° -117.49988° 2 min 0.01 0.02
270°
Apr 15, 05:59 33.28993° -117.49986° 8 min 0.01 0.01
292°
Apr 15, 05:51 33.28992° -117.49984° 2 min 0.01 0.00
Apr 15, 05:49 33.28992° -117.49984° 7 min 0.01 0.01
Apr 15, 05:41 33.28990° -117.49984° 2 min 0.01 0.03
270°
Apr 15, 05:39 33.28990° -117.49982° 7 min 0.02 0.01
220°
Apr 15, 05:31 33.28992° -117.49979° 2 min 0.02 0.01
180°
Apr 15, 05:29 33.28993° -117.49979° 7 min 0.02 0.03
Apr 15, 05:21 33.28987° -117.49979° 2 min 0.02 0.05
135°
Apr 15, 05:19 33.28989° -117.49982° 8 min 0.02 0.01
Apr 15, 05:11 33.28986° -117.49982° 2 min 0.02 0.04
Apr 15, 05:09 33.28983° -117.49982° 7 min 0.02 0.02
209°
Apr 15, 05:01 33.28987° -117.49979° 2 min 0.02 0.00
Apr 15, 04:59 33.28987° -117.49979° 8 min 0.02 0.01
Apr 15, 04:51 33.28986° -117.49979° 2 min 0.02 0.04
121°
Apr 15, 04:49 33.28987° -117.49982° 7 min 0.02 0.01
301°
Apr 15, 04:41 33.28986° -117.49979° 2 min 0.02 0.03
90°
Apr 15, 04:39 33.28986° -117.49982° 7 min 0.02 0.01
270°
Apr 15, 04:31 33.28986° -117.49979° 2 min 0.02 0.02
180°
Apr 15, 04:29 33.28987° -117.49979° 8 min 0.02 0.03
197°
Apr 15, 04:21 33.28993° -117.49977° 2 min 0.02 0.00
Apr 15, 04:19 33.28993° -117.49977° 8 min 0.02 0.02
180°
Apr 15, 04:11 33.28998° -117.49977°